createdAt,value
2022-09-11T00:00:22.849Z,99.74
2022-09-11T00:05:22.783Z,99.69
2022-09-11T00:10:22.735Z,99.99
2022-09-11T00:15:22.669Z,99.99
2022-09-11T00:20:22.623Z,99.99
2022-09-11T00:25:22.581Z,99.89
2022-09-11T00:30:22.543Z,99.79
2022-09-11T00:35:22.459Z,99.94
2022-09-11T00:40:22.411Z,99.84
2022-09-11T00:45:22.329Z,99.94
2022-09-11T00:50:22.288Z,99.74
2022-09-11T00:55:22.234Z,99.99
2022-09-11T01:00:22.162Z,99.99
2022-09-11T01:05:22.150Z,99.99
2022-09-11T01:10:22.087Z,99.99
2022-09-11T01:15:22.007Z,99.99
2022-09-11T01:20:21.944Z,99.99
2022-09-11T01:25:21.917Z,99.99
2022-09-11T01:30:21.845Z,99.99
2022-09-11T01:35:21.799Z,99.99
2022-09-11T01:40:21.745Z,99.99
2022-09-11T01:45:21.718Z,99.99
2022-09-11T01:50:21.630Z,99.99
2022-09-11T01:55:21.566Z,99.99
2022-09-11T02:00:21.523Z,99.99
2022-09-11T02:05:21.481Z,99.99
2022-09-11T02:10:21.398Z,99.99
2022-09-11T02:15:21.336Z,99.99
2022-09-11T02:20:21.307Z,99.99
2022-09-11T02:25:21.235Z,99.99
2022-09-11T02:30:21.188Z,99.99
2022-09-11T02:35:21.127Z,99.99
2022-09-11T02:40:21.088Z,99.99
2022-09-11T02:45:21.063Z,99.99
2022-09-11T02:50:20.985Z,99.99
2022-09-11T02:55:20.935Z,99.99
2022-09-11T03:00:20.856Z,99.99
2022-09-11T03:05:20.804Z,99.99
2022-09-11T03:10:20.766Z,99.99
2022-09-11T03:15:20.686Z,99.99
2022-09-11T03:20:20.637Z,99.99
2022-09-11T03:25:20.584Z,99.99
2022-09-11T03:30:20.495Z,99.99
2022-09-11T03:35:20.471Z,99.99
2022-09-11T03:40:20.436Z,99.99
2022-09-11T03:45:20.354Z,99.99
2022-09-11T03:50:20.314Z,99.99
2022-09-11T03:55:20.245Z,99.99
2022-09-11T04:00:20.193Z,99.99
2022-09-11T04:05:20.159Z,99.99
2022-09-11T04:10:20.105Z,99.99
2022-09-11T04:15:20.031Z,99.99
2022-09-11T04:20:19.975Z,99.99
2022-09-11T04:25:19.945Z,99.99
2022-09-11T04:30:19.861Z,99.99
2022-09-11T04:35:19.826Z,99.99
2022-09-11T04:40:28.620Z,99.99
2022-09-11T04:45:19.708Z,99.99
2022-09-11T04:50:19.668Z,99.99
2022-09-11T04:55:19.618Z,99.99
2022-09-11T05:00:19.577Z,99.99
2022-09-11T05:05:19.538Z,99.99
2022-09-11T05:10:19.558Z,99.99
2022-09-11T05:15:19.490Z,99.99
2022-09-11T05:20:19.450Z,99.99
2022-09-11T05:25:19.366Z,99.99
2022-09-11T05:30:19.318Z,99.99
2022-09-11T05:35:19.246Z,99.99
2022-09-11T05:40:19.115Z,99.99
2022-09-11T05:45:19.087Z,99.99
2022-09-11T05:50:19.007Z,99.99
2022-09-11T05:55:18.986Z,99.99
2022-09-11T06:00:18.920Z,99.99
2022-09-11T06:05:18.899Z,99.99
2022-09-11T06:10:18.822Z,99.99
2022-09-11T06:15:42.943Z,99.99
2022-09-11T06:20:19.731Z,99.99
2022-09-11T06:25:18.711Z,99.99
2022-09-11T06:30:18.576Z,99.99
2022-09-11T06:35:18.543Z,99.99
2022-09-11T06:40:18.667Z,99.99
2022-09-11T06:45:18.394Z,99.99
2022-09-11T06:50:18.349Z,99.99
2022-09-11T06:55:18.287Z,99.99
2022-09-11T07:00:18.224Z,99.47
2022-09-11T07:05:18.291Z,99.67
2022-09-11T07:10:18.225Z,99.37
2022-09-11T07:15:18.146Z,99.37
2022-09-11T07:20:18.021Z,99.02
2022-09-11T07:25:26.830Z,98.11
2022-09-11T07:30:17.918Z,98.36
2022-09-11T07:35:17.930Z,98.25
2022-09-11T07:40:17.917Z,98.31
2022-09-11T07:45:22.502Z,97.85
2022-09-11T07:50:17.681Z,98.11
2022-09-11T07:55:17.617Z,97.91
2022-09-11T08:00:17.567Z,97.16
2022-09-11T08:05:17.563Z,97.25
2022-09-11T08:10:27.095Z,96.75
2022-09-11T08:15:18.467Z,96.34
2022-09-11T08:20:17.492Z,96.04
2022-09-11T08:25:17.321Z,96.10
2022-09-11T08:30:17.397Z,94.64
2022-09-11T08:35:17.204Z,94.80
2022-09-11T08:40:17.189Z,94.85
2022-09-11T08:45:17.454Z,93.30
2022-09-11T08:50:17.157Z,92.45
2022-09-11T08:55:17.142Z,91.28
2022-09-11T09:00:17.095Z,92.14
2022-09-11T09:05:17.038Z,90.53
2022-09-11T09:10:18.032Z,90.95
2022-09-11T09:15:16.800Z,87.69
2022-09-11T09:20:16.732Z,89.10
2022-09-11T09:25:16.670Z,86.88
2022-09-11T09:30:16.712Z,87.69
2022-09-11T09:35:16.578Z,86.58
2022-09-11T09:40:16.515Z,87.59
2022-09-11T09:45:17.762Z,88.34
2022-09-11T09:50:16.410Z,89.79
2022-09-11T09:55:16.288Z,89.48
2022-09-11T10:00:16.331Z,89.59
2022-09-11T10:05:16.239Z,89.24
2022-09-11T10:10:16.198Z,88.29
2022-09-11T10:15:16.070Z,87.81
2022-09-11T10:20:16.201Z,87.01
2022-09-11T10:25:16.063Z,84.49
2022-09-11T10:30:15.976Z,85.39
2022-09-11T10:35:15.845Z,85.53
2022-09-11T10:40:16.507Z,86.08
2022-09-11T10:45:17.025Z,86.54
2022-09-11T10:50:16.766Z,87.06
2022-09-11T10:55:16.421Z,83.97
2022-09-11T11:00:17.196Z,81.24
2022-09-11T11:05:17.611Z,79.41
2022-09-11T11:10:16.676Z,78.39
2022-09-11T11:15:16.837Z,75.85
2022-09-11T11:20:17.046Z,75.83
2022-09-11T11:25:15.692Z,78.64
2022-09-11T11:30:18.820Z,80.38
2022-09-11T11:35:17.167Z,80.98
2022-09-11T11:40:20.747Z,79.02
2022-09-11T11:45:18.024Z,81.32
2022-09-11T11:50:15.520Z,80.58
2022-09-11T11:55:15.873Z,75.43
2022-09-11T12:00:16.668Z,75.06
2022-09-11T12:05:16.259Z,75.90
2022-09-11T12:10:17.080Z,76.80
2022-09-11T12:15:15.816Z,75.80
2022-09-11T12:20:15.340Z,74.87
2022-09-11T12:25:17.823Z,73.89
2022-09-11T12:30:19.537Z,73.22
2022-09-11T12:35:16.366Z,73.42
2022-09-11T12:40:17.130Z,73.36
2022-09-11T12:45:15.897Z,73.69
2022-09-11T12:50:14.489Z,72.63
2022-09-11T12:55:14.533Z,75.80
2022-09-11T13:00:14.669Z,76.34
2022-09-11T13:05:14.380Z,74.90
2022-09-11T13:10:14.280Z,73.99
2022-09-11T13:15:14.249Z,73.03
2022-09-11T13:20:14.244Z,72.13
2022-09-11T13:25:14.973Z,73.53
2022-09-11T13:30:14.148Z,74.06
2022-09-11T13:35:14.265Z,73.83
2022-09-11T13:40:14.001Z,74.87
2022-09-11T13:45:13.877Z,74.66
2022-09-11T13:50:13.909Z,72.80
2022-09-11T13:55:13.899Z,72.76
2022-09-11T14:00:14.888Z,71.42
2022-09-11T14:05:13.702Z,71.76
2022-09-11T14:10:13.658Z,73.56
2022-09-11T14:15:13.590Z,73.96
2022-09-11T14:20:13.573Z,71.56
2022-09-11T14:25:15.592Z,72.76
2022-09-11T14:30:13.752Z,72.50
2022-09-11T14:35:17.080Z,71.00
2022-09-11T14:40:13.465Z,71.96
2022-09-11T14:45:13.429Z,71.19
2022-09-11T14:50:13.245Z,72.39
2022-09-11T14:55:13.242Z,72.83
2022-09-11T15:00:13.173Z,73.13
2022-09-11T15:05:13.038Z,72.16
2022-09-11T15:10:13.025Z,73.16
2022-09-11T15:15:13.079Z,73.27
2022-09-11T15:20:12.993Z,73.80
2022-09-11T15:25:12.983Z,73.70
2022-09-11T15:30:12.865Z,73.50
2022-09-11T15:35:12.777Z,73.64
2022-09-11T15:40:16.557Z,73.24
2022-09-11T15:45:12.629Z,74.44
2022-09-11T15:50:12.540Z,72.56
2022-09-11T15:55:12.657Z,73.54
2022-09-11T16:00:12.544Z,73.17
2022-09-11T16:05:12.401Z,75.38
2022-09-11T16:10:12.378Z,75.48
2022-09-11T16:15:12.283Z,75.71
2022-09-11T16:20:12.158Z,76.82
2022-09-11T16:25:12.180Z,76.72
2022-09-11T16:30:42.875Z,77.96
2022-09-11T16:35:13.157Z,79.27
2022-09-11T16:40:12.062Z,78.70
2022-09-11T16:45:12.081Z,78.40
2022-09-11T16:50:11.943Z,79.14
2022-09-11T16:55:11.830Z,77.53
2022-09-11T17:00:11.727Z,80.69
2022-09-11T17:05:11.702Z,79.68
2022-09-11T17:10:11.618Z,78.58
2022-09-11T17:15:11.568Z,80.89
2022-09-11T17:20:11.520Z,81.13
2022-09-11T17:25:11.555Z,81.87
2022-09-11T17:30:11.497Z,83.99
2022-09-11T17:35:11.487Z,84.07
2022-09-11T17:40:12.478Z,84.67
2022-09-11T17:45:11.998Z,85.42
2022-09-11T17:50:11.316Z,85.76
2022-09-11T17:55:11.570Z,86.41
2022-09-11T18:00:11.419Z,86.91
2022-09-11T18:05:11.344Z,86.95
2022-09-11T18:10:11.656Z,87.50
2022-09-11T18:15:11.461Z,89.01
2022-09-11T18:20:11.129Z,89.56
2022-09-11T18:25:12.254Z,89.40
2022-09-11T18:30:10.840Z,89.70
2022-09-11T18:35:11.093Z,90.76
2022-09-11T18:40:12.054Z,91.67
2022-09-11T18:45:10.574Z,91.57
2022-09-11T18:50:10.577Z,91.61
2022-09-11T18:55:10.933Z,91.55
2022-09-11T19:00:10.432Z,91.66
2022-09-11T19:05:10.386Z,91.90
2022-09-11T19:10:10.295Z,92.21
2022-09-11T19:15:10.309Z,92.35
2022-09-11T19:20:10.332Z,92.55
2022-09-11T19:25:11.125Z,93.37
2022-09-11T19:30:12.269Z,93.61
2022-09-11T19:35:10.191Z,93.91
2022-09-11T19:40:10.134Z,94.57
2022-09-11T19:45:10.045Z,94.77
2022-09-11T19:50:09.854Z,94.77
2022-09-11T19:55:09.785Z,95.07
2022-09-11T20:00:09.744Z,95.02
2022-09-11T20:05:09.830Z,95.02
2022-09-11T20:10:09.644Z,95.32
2022-09-11T20:15:09.617Z,95.63
2022-09-11T20:20:09.534Z,95.98
2022-09-11T20:25:09.572Z,95.78
2022-09-11T20:30:10.531Z,95.82
2022-09-11T20:35:09.903Z,96.12
2022-09-11T20:40:09.367Z,96.73
2022-09-11T20:45:09.283Z,96.33
2022-09-11T20:50:09.230Z,96.63
2022-09-11T20:55:09.170Z,96.73
2022-09-11T21:00:09.065Z,96.73
2022-09-11T21:05:09.045Z,96.98
2022-09-11T21:10:08.971Z,96.88
2022-09-11T21:15:09.023Z,96.72
2022-09-11T21:20:08.905Z,96.92
2022-09-11T21:25:08.832Z,97.03
2022-09-11T21:30:08.743Z,96.87
2022-09-11T21:35:08.729Z,97.38
2022-09-11T21:40:08.703Z,97.38
2022-09-11T21:45:08.616Z,97.48
2022-09-11T21:50:08.523Z,97.58
2022-09-11T21:55:08.552Z,97.38
2022-09-11T22:00:08.461Z,97.42
2022-09-11T22:05:10.358Z,97.32
2022-09-11T22:10:08.382Z,97.27
2022-09-11T22:15:08.277Z,97.47
2022-09-11T22:20:08.176Z,97.57
2022-09-11T22:25:08.114Z,97.67
2022-09-11T22:30:08.059Z,97.67
2022-09-11T22:35:08.020Z,97.62
2022-09-11T22:40:08.113Z,97.72
2022-09-11T22:45:07.929Z,97.62
2022-09-11T22:50:07.896Z,97.62
2022-09-11T22:55:07.812Z,97.97
2022-09-11T23:00:07.772Z,97.97
2022-09-11T23:05:07.706Z,97.97
2022-09-11T23:10:07.614Z,97.77
2022-09-11T23:15:07.566Z,97.87
2022-09-11T23:20:07.499Z,98.07
2022-09-11T23:25:07.423Z,98.02
2022-09-11T23:30:07.365Z,97.91
2022-09-11T23:35:07.406Z,98.11
2022-09-11T23:40:07.409Z,98.11
2022-09-11T23:45:07.261Z,98.22
2022-09-11T23:50:07.226Z,98.02
2022-09-11T23:55:07.141Z,98.52
